• Join FlightAware (Why Join?)
  • Login
  • US Flag 
06:45AM EST


 

Airport Tracker/Info


-or-


 

Live Flight TrackerFlight Track Log ✈ GGN7437 ✈ 15-May-2012 ✈ KBDL - CYYZ

Flight Track Log - Related Links

Times and Time Zones

All times are in EDT time to prevent confusion due to time zone crossing. See the GGN7437 flight status page for this flight to view local times or setup timezone preferences in your user account.

Time Position Orientation Groundspeed Altitude Reporting Facility
EDT Latitude Longitude Course Direction KTS MPH feet Rate Location/Type
07:48PM 41.9375 -72.6942 270° West 132 152 700  Level Boston Center
07:50PM 41.9372 -72.8028 321° Northwest 198 228 3,900 1,771 Climbing Boston Center
07:51PM 41.9786 -72.8478 340° North 176 203 5,600 1,550 Climbing Boston Center
07:52PM 42.0411 -72.8789 352° North 194 223 7,000 1,300 Climbing Boston Center
07:53PM 42.0994 -72.8906 350° North 215 247 8,200 1,250 Climbing Boston Center
07:54PM 42.1703 -72.9078 345° North 232 267 9,500 1,150 Climbing Boston Center
07:55PM 42.2264 -72.9278 329° Northwest 232 267 10,500 1,000 Climbing Boston Center
07:56PM 42.2867 -72.9761 294° West 232 267 11,500 1,000 Climbing Boston Center
07:57PM 42.3092 -73.0436 291° West 233 268 12,500 1,000 Climbing Boston Center
07:58PM 42.3336 -73.1311 288° West 221 254 13,500 1,000 Climbing Boston Center
07:59PM 42.3539 -73.2156 292° West 228 262 14,500 900 Climbing Boston Center
08:00PM 42.3744 -73.2861 289° West 236 272 15,300 700 Climbing Boston Center
08:01PM 42.3986 -73.3792 292° West 231 266 15,900 350 Climbing Boston Center
08:02PM 42.4208 -73.4553 280° West 236 272 16,000 50 Climbing Boston Center
08:03PM 42.4344 -73.5625 283° West 253 291 16,000 250 Level Boston Center
08:04PM 42.4483 -73.6414 303° West 258 297 16,500 450 Climbing Boston Center
08:05PM 42.4911 -73.7297 305° West 248 285 16,900 250 Climbing Boston Center
08:06PM 42.5297 -73.8036 304° West 262 302 17,000 250 Climbing Boston Center
08:07PM 42.5744 -73.8950 290° West 267 307 17,400 550 Climbing Boston Center
08:08PM 42.5983 -73.9858 278° West 261 300 18,100 700 Climbing Boston Center
08:09PM 42.6075 -74.0733 273° West 251 289 18,800 650 Climbing Boston Center
08:10PM 42.6106 -74.1525 278° West 240 276 19,400 600 Climbing Boston Center
08:11PM 42.6194 -74.2431 277° West 240 276 20,000 350 Climbing Boston Center
08:12PM 42.6283 -74.3364 275° West 240 276 20,100  Climbing Boston Center
08:13PM 42.6350 -74.4353 278° West 250 288 20,000 -50 Descending Boston Center
08:14PM 42.6439 -74.5261 277° West 255 293 20,000  Level Boston Center
08:15PM 42.6525 -74.6194 275° West 255 293 20,000  Level Boston Center
08:16PM 42.6589 -74.7158 279° West 255 293 20,000  Level Boston Center
08:17PM 42.6697 -74.8064 277° West 255 293 20,000  Level Boston Center
08:18PM 42.6781 -74.9000 275° West 255 293 20,000  Level Boston Center
08:19PM 42.6844 -74.9933 275° West 255 293 20,000  Level Boston Center
08:20PM 42.6906 -75.0842 277° West 255 293 20,000  Level Boston Center
08:21PM 42.6989 -75.1778 277° West 255 293 20,000  Level Boston Center
08:22PM 42.7069 -75.2686 275° West 255 293 20,000  Level Boston Center
08:23PM 42.7131 -75.3592 277° West 255 293 20,000  Level Boston Center
08:24PM 42.7211 -75.4528 277° West 255 293 20,000 -50 Level Boston Center
08:25PM 42.7292 -75.5439 276° West 255 293 19,900  Descending Boston Center
08:26PM 42.7367 -75.6403 275° West 255 293 20,000 50 Climbing Boston Center
08:27PM 42.7425 -75.7311 275° West 255 293 20,000  Level Boston Center
08:28PM 42.7481 -75.8247 278° West 255 293 20,000  Level Boston Center
08:29PM 42.7578 -75.9186 276° West 255 293 20,000  Level Boston Center
08:30PM 42.7653 -76.0094 276° West 255 293 20,000  Level Boston Center
08:31PM 42.7781 -76.1642 275° West 244 281 20,000 -39 Level Cleveland Center
08:32PM 42.7836 -76.2572 276° West 244 281 19,900  Descending Cleveland Center
08:33PM 42.7911 -76.3500 275° West 249 287 20,000 50 Climbing Cleveland Center
08:34PM 42.7967 -76.4431 276° West 254 292 20,000  Level Cleveland Center
08:35PM 42.8042 -76.5389 274° West 254 292 20,000  Level Cleveland Center
08:36PM 42.8094 -76.6319 276° West 254 292 20,000  Level Cleveland Center
08:37PM 42.8169 -76.7278 287° West 254 292 20,000  Level Cleveland Center
08:38PM 42.8367 -76.8172 284° West 254 292 20,000  Level Cleveland Center
08:39PM 42.8542 -76.9125 286° West 254 292 20,000  Level Cleveland Center
08:40PM 42.8689 -76.9825 284° West 254 292 20,000  Level Cleveland Center
08:41PM 42.8892 -77.0975 288° West 259 298 20,000  Level Cleveland Center
08:42PM 42.9106 -77.1900 285° West 259 298 20,000  Level Cleveland Center
08:43PM 42.9278 -77.2797 284° West 259 298 20,000 -350 Level Cleveland Center
08:44PM 42.9450 -77.3753 286° West 259 298 19,300 -605 Descending Cleveland Center
08:45PM 42.9619 -77.4539 283° West 259 298 18,800 -800 Descending Cleveland Center
08:46PM 42.9817 -77.5692 282° West 259 298 17,700 -992 Descending Cleveland Center
08:47PM 42.9964 -77.6622 288° West 259 298 16,800 -750 Descending Cleveland Center
08:48PM 43.0197 -77.7578 283° West 259 298 16,200 -750 Descending Cleveland Center
08:49PM 43.0367 -77.8564 286° West 259 298 15,300 -700 Descending Cleveland Center
08:50PM 43.0556 -77.9492 283° West 259 298 14,800 -550 Descending Cleveland Center
08:51PM 43.0722 -78.0481 285° West 259 298 14,200 -350 Descending Cleveland Center
08:52PM 43.0911 -78.1439 278° West 259 298 14,100 -100 Descending Cleveland Center
08:53PM 43.1014 -78.2403 286° West 259 298 14,000 -300 Descending Cleveland Center
08:54PM 43.1197 -78.3306 285° West 259 298 13,500 -600 Descending Cleveland Center
08:55PM 43.1383 -78.4239 283° West 259 298 12,800 -744 Descending Cleveland Center
08:56PM 43.1547 -78.5200 282° West 259 298 12,000 3,600 Descending Cleveland Center
08:57PM 43.1711 -78.6247 285° West 271 312 20,000 -504 Climbing Cleveland Center
08:58PM 43.1892 -78.7183 283° West 271 312 11,000 -4,450 Descending Cleveland Center
08:59PM 43.2031 -78.8003 285° West 253 291 11,100 50 Climbing Cleveland Center
09:00PM 43.2167 -78.8711 280° West 248 285 11,100 -44 Level Cleveland Center
09:01PM 43.2333 -79.0000 285° West 240 276 11,000 -88 Descending Toronto Center
09:02PM 43.2500 -79.0833 283° West 240 276 10,900 -350 Descending Toronto Center
09:03PM 43.2667 -79.1833 285° West 250 288 10,300 -850 Descending Toronto Center
09:04PM 43.2833 -79.2667 285° West 250 288 9,200 -650 Descending Toronto Center
09:05PM 43.3000 -79.3500 340° North 250 288 9,000 -250 Descending Toronto Center
09:06PM 43.3667 -79.3833 331° Northwest 240 276 8,700 -500 Descending Toronto Center
09:07PM 43.4333 -79.4333 346° North 240 276 8,000 -350 Descending Toronto Center
09:08PM 43.4833 -79.4500 350° North 240 276 8,000  Level Toronto Center
09:09PM 43.5500 -79.4667 10° North 230 265 8,000 -600 Level Toronto Center
09:10PM 43.6167 -79.4500 14° North 230 265 6,800 -1,750 Descending Toronto Center
09:11PM 43.6667 -79.4333 346° North 210 242 4,500 -2,000 Descending Toronto Center
09:12PM 43.7167 -79.4500 270° West 200 230 2,800 -1,300 Descending Toronto Center
09:13PM 43.7167 -79.5167 200° South 150 173 1,900 -800 Descending Toronto Center
09:14PM 43.6833 -79.5333 245° Southwest 130 150 1,200 -650 Descending Toronto Center
09:15PM 43.6667 -79.5833 180° South 120 138 600 -350 Descending Toronto Center
09:16PM 43.6500 -79.5833 180° South 40 46 500 -100 Descending Toronto Center